createdAt,value
2023-03-26T00:01:41.384Z,79.68
2023-03-26T00:04:09.593Z,79.79
2023-03-26T00:06:40.063Z,80.22
2023-03-26T00:09:13.269Z,80.40
2023-03-26T00:11:43.146Z,80.74
2023-03-26T00:14:13.998Z,81.17
2023-03-26T00:16:42.654Z,81.29
2023-03-26T00:19:11.890Z,81.22
2023-03-26T00:21:41.371Z,81.26
2023-03-26T00:24:17.472Z,81.32
2023-03-26T00:26:53.039Z,81.59
2023-03-26T00:29:23.111Z,81.76
2023-03-26T00:31:51.444Z,82.61
2023-03-26T00:34:19.417Z,83.42
2023-03-26T00:36:47.580Z,83.84
2023-03-26T00:39:17.849Z,84.39
2023-03-26T00:41:46.231Z,83.03
2023-03-26T00:44:14.206Z,82.17
2023-03-26T00:46:42.644Z,82.50
2023-03-26T00:49:14.932Z,83.35
2023-03-26T00:51:44.675Z,85.66
2023-03-26T00:54:13.288Z,86.29
2023-03-26T00:56:41.888Z,86.31
2023-03-26T00:59:11.001Z,86.42
2023-03-26T01:01:39.802Z,86.27
2023-03-26T01:04:34.704Z,86.41
2023-03-26T01:07:11.573Z,86.23
2023-03-26T01:09:45.020Z,86.45
2023-03-26T01:12:17.143Z,86.35
2023-03-26T01:14:51.025Z,86.51
2023-03-26T01:17:20.135Z,86.01
2023-03-26T01:20:20.133Z,85.87
2023-03-26T01:22:54.656Z,85.65
2023-03-26T01:25:28.662Z,85.33
2023-03-26T01:27:57.750Z,85.58
2023-03-26T01:30:49.535Z,85.20
2023-03-26T01:33:43.891Z,85.24
2023-03-26T01:36:30.023Z,84.15
2023-03-26T01:39:30.889Z,84.26
2023-03-26T01:42:10.980Z,84.08
2023-03-26T01:44:56.862Z,84.45
2023-03-26T01:47:28.606Z,84.74
2023-03-26T01:49:56.629Z,85.06
2023-03-26T01:52:26.213Z,85.33
2023-03-26T01:54:56.650Z,85.48
2023-03-26T01:57:51.525Z,85.99
2023-03-26T02:00:26.124Z,86.03
2023-03-26T02:03:18.128Z,86.10
2023-03-26T02:06:11.343Z,86.09
2023-03-26T02:09:09.045Z,86.20
2023-03-26T02:11:41.004Z,85.99
2023-03-26T02:14:09.622Z,85.98
2023-03-26T02:16:40.423Z,85.77
2023-03-26T02:19:15.503Z,85.85
2023-03-26T02:21:43.839Z,85.80
2023-03-26T02:24:12.058Z,85.79
2023-03-26T02:26:42.567Z,85.91
2023-03-26T02:29:20.555Z,86.11
2023-03-26T02:31:49.643Z,85.73
2023-03-26T02:34:17.824Z,85.57
2023-03-26T02:36:53.319Z,85.11
2023-03-26T02:39:26.225Z,85.23
2023-03-26T02:42:03.897Z,84.84
2023-03-26T02:44:40.152Z,84.87
2023-03-26T02:47:20.318Z,84.67
2023-03-26T02:49:54.368Z,84.50
2023-03-26T02:52:43.075Z,84.37
2023-03-26T02:55:11.044Z,83.98
2023-03-26T02:57:41.293Z,83.95
2023-03-26T03:00:15.957Z,84.16
2023-03-26T03:02:50.764Z,84.37
2023-03-26T03:05:45.944Z,84.37
2023-03-26T03:08:28.262Z,84.62
2023-03-26T03:11:15.957Z,84.30
2023-03-26T03:13:46.295Z,84.41
2023-03-26T03:16:17.903Z,84.23
2023-03-26T03:18:47.518Z,84.04
2023-03-26T03:21:15.789Z,83.91
2023-03-26T03:23:43.762Z,83.40
2023-03-26T03:26:21.684Z,83.35
2023-03-26T03:28:56.603Z,83.15
2023-03-26T03:31:26.549Z,83.19
2023-03-26T03:33:57.803Z,83.46
2023-03-26T03:36:28.113Z,83.28
2023-03-26T03:39:02.926Z,83.52
2023-03-26T03:41:31.245Z,83.54
2023-03-26T03:44:01.522Z,83.42
2023-03-26T03:46:33.073Z,83.48
2023-03-26T03:49:01.092Z,83.42
2023-03-26T03:51:35.202Z,83.43
2023-03-26T03:54:06.064Z,83.70
2023-03-26T03:56:52.290Z,83.68
2023-03-26T03:59:33.759Z,83.68
2023-03-26T04:02:04.846Z,83.64
2023-03-26T04:04:40.759Z,83.76
2023-03-26T04:07:12.407Z,83.91
2023-03-26T04:10:00.376Z,83.54
2023-03-26T04:12:31.554Z,83.68
2023-03-26T04:15:05.132Z,83.38
2023-03-26T04:17:33.737Z,83.60
2023-03-26T04:20:06.229Z,83.54
2023-03-26T04:22:36.506Z,83.36
2023-03-26T04:25:07.601Z,83.33
2023-03-26T04:27:48.931Z,83.15
2023-03-26T04:30:24.757Z,83.22
2023-03-26T04:33:06.474Z,83.21
2023-03-26T04:35:38.108Z,82.66
2023-03-26T04:38:09.835Z,82.97
2023-03-26T04:40:42.371Z,82.78
2023-03-26T04:43:30.433Z,82.76
2023-03-26T04:46:18.447Z,82.91
2023-03-26T04:48:53.098Z,83.02
2023-03-26T04:51:27.100Z,82.81
2023-03-26T04:53:59.631Z,82.68
2023-03-26T04:56:45.859Z,82.89
2023-03-26T04:59:30.240Z,82.69
2023-03-26T05:02:00.145Z,83.11
2023-03-26T05:04:34.006Z,82.64
2023-03-26T05:07:03.279Z,82.63
2023-03-26T05:09:36.533Z,82.75
2023-03-26T05:12:12.575Z,82.54
2023-03-26T05:14:50.231Z,82.52
2023-03-26T05:17:24.984Z,82.49
2023-03-26T05:19:53.089Z,82.10
2023-03-26T05:22:21.385Z,82.10
2023-03-26T05:25:09.641Z,81.84
2023-03-26T05:27:38.623Z,81.64
2023-03-26T05:30:07.952Z,81.78
2023-03-26T05:32:43.096Z,81.71
2023-03-26T05:35:12.579Z,81.27
2023-03-26T05:37:40.966Z,81.43
2023-03-26T05:40:11.820Z,81.19
2023-03-26T05:42:47.837Z,81.33
2023-03-26T05:45:37.396Z,80.73
2023-03-26T05:48:31.520Z,80.81
2023-03-26T05:51:00.325Z,80.65
2023-03-26T05:53:30.778Z,81.00
2023-03-26T05:56:17.703Z,80.46
2023-03-26T05:59:04.501Z,80.12
2023-03-26T06:01:51.602Z,80.66
2023-03-26T06:04:42.396Z,80.51
2023-03-26T06:07:29.322Z,80.13
2023-03-26T06:11:55.856Z,80.48
2023-03-26T06:14:23.803Z,80.48
2023-03-26T06:17:13.875Z,80.52
2023-03-26T06:20:01.029Z,80.42
2023-03-26T06:22:39.248Z,80.41
2023-03-26T06:25:30.784Z,80.38
2023-03-26T06:28:23.154Z,80.72
2023-03-26T06:30:52.489Z,80.58
2023-03-26T06:33:36.865Z,80.74
2023-03-26T06:36:05.789Z,80.40
2023-03-26T06:38:34.302Z,80.83
2023-03-26T06:41:06.195Z,80.71
2023-03-26T06:43:52.896Z,79.95
2023-03-26T06:46:39.879Z,80.54
2023-03-26T06:49:38.099Z,79.69
2023-03-26T06:52:24.930Z,79.76
2023-03-26T06:55:08.557Z,80.22
2023-03-26T06:58:02.210Z,78.90
2023-03-26T07:00:42.546Z,79.11
2023-03-26T07:03:42.553Z,78.80
2023-03-26T07:06:29.197Z,79.23
2023-03-26T07:09:16.179Z,79.03
2023-03-26T07:12:19.208Z,78.73
2023-03-26T07:15:03.493Z,78.29
2023-03-26T07:18:07.109Z,77.99
2023-03-26T07:20:37.772Z,77.47
2023-03-26T07:23:06.809Z,77.44
2023-03-26T07:25:40.166Z,77.50
2023-03-26T07:28:36.181Z,77.58
2023-03-26T07:31:27.415Z,77.66
2023-03-26T07:34:25.868Z,77.40
2023-03-26T07:37:37.276Z,77.04
2023-03-26T07:41:05.692Z,77.91
2023-03-26T07:44:21.178Z,77.50
2023-03-26T07:47:34.894Z,77.57
2023-03-26T07:50:19.903Z,76.42
2023-03-26T07:53:01.692Z,76.79
2023-03-26T07:56:25.275Z,77.21
2023-03-26T07:59:40.059Z,78.14
2023-03-26T08:03:05.110Z,76.22
2023-03-26T08:06:19.563Z,76.64
2023-03-26T08:09:26.613Z,75.75
2023-03-26T08:12:34.697Z,74.52
2023-03-26T08:15:26.137Z,74.42
2023-03-26T08:18:10.721Z,75.02
2023-03-26T08:20:54.363Z,74.03
2023-03-26T08:24:18.053Z,71.92
2023-03-26T08:27:08.575Z,70.97
2023-03-26T08:30:12.491Z,72.06
2023-03-26T08:32:41.533Z,71.20
2023-03-26T08:35:13.568Z,71.73
2023-03-26T08:37:41.507Z,72.29
2023-03-26T08:40:12.240Z,72.47
2023-03-26T08:43:02.292Z,72.44
2023-03-26T08:45:58.362Z,72.10
2023-03-26T08:49:03.445Z,71.09
2023-03-26T08:52:03.980Z,71.41
2023-03-26T08:55:22.002Z,70.75
2023-03-26T08:58:33.278Z,70.88
2023-03-26T09:01:53.349Z,71.40
2023-03-26T09:04:32.949Z,70.82
2023-03-26T09:07:27.901Z,70.86
2023-03-26T09:10:33.642Z,71.01
2023-03-26T09:13:19.016Z,70.88
2023-03-26T09:16:12.046Z,71.18
2023-03-26T09:19:01.304Z,70.98
2023-03-26T09:22:08.820Z,71.08
2023-03-26T09:25:42.939Z,70.60
2023-03-26T09:28:46.040Z,69.39
2023-03-26T09:31:47.336Z,69.62
2023-03-26T09:34:42.857Z,68.73
2023-03-26T09:37:57.186Z,68.87
2023-03-26T09:40:54.750Z,68.47
2023-03-26T09:43:45.381Z,68.29
2023-03-26T09:46:46.718Z,67.97
2023-03-26T09:50:10.049Z,67.72
2023-03-26T09:53:09.053Z,67.79
2023-03-26T09:55:59.561Z,67.36
2023-03-26T09:59:08.201Z,66.84
2023-03-26T10:01:54.651Z,67.28
2023-03-26T10:04:46.189Z,67.49
2023-03-26T10:07:47.224Z,68.65
2023-03-26T10:10:44.478Z,68.41
2023-03-26T10:13:35.677Z,69.96
2023-03-26T10:16:51.890Z,71.86
2023-03-26T10:19:43.427Z,73.80
2023-03-26T10:22:40.496Z,74.64
2023-03-26T10:25:36.378Z,77.16
2023-03-26T10:28:28.785Z,80.08
2023-03-26T10:31:48.027Z,80.46
2023-03-26T10:34:38.900Z,79.86
2023-03-26T10:37:18.414Z,79.67
2023-03-26T10:40:11.336Z,77.74
2023-03-26T10:43:14.671Z,77.64
2023-03-26T10:46:24.840Z,76.62
2023-03-26T10:49:19.287Z,74.25
2023-03-26T10:51:58.830Z,73.47
2023-03-26T10:54:56.278Z,72.47
2023-03-26T10:57:38.081Z,71.45
2023-03-26T11:00:17.590Z,71.26
2023-03-26T11:03:20.792Z,71.72
2023-03-26T11:06:17.226Z,70.77
2023-03-26T11:09:05.931Z,70.01
2023-03-26T11:12:25.556Z,69.51
2023-03-26T11:15:03.793Z,68.63
2023-03-26T11:17:48.124Z,68.15
2023-03-26T11:20:29.925Z,67.19
2023-03-26T11:23:36.860Z,66.08
2023-03-26T11:26:14.635Z,65.52
2023-03-26T11:29:04.054Z,66.11
2023-03-26T11:32:03.117Z,65.25
2023-03-26T11:34:42.570Z,64.59
2023-03-26T11:37:55.007Z,63.21
2023-03-26T11:40:50.954Z,62.03
2023-03-26T11:43:37.943Z,61.87
2023-03-26T11:46:14.635Z,61.22
2023-03-26T11:49:09.100Z,60.10
2023-03-26T11:51:39.833Z,59.09
2023-03-26T11:54:12.115Z,61.04
2023-03-26T11:57:07.301Z,60.59
2023-03-26T11:59:57.599Z,59.32
2023-03-26T12:02:39.017Z,59.07
2023-03-26T12:05:24.916Z,60.60
2023-03-26T12:07:57.091Z,62.99
2023-03-26T12:10:32.462Z,64.69
2023-03-26T12:13:23.257Z,69.28
2023-03-26T12:15:51.317Z,78.18
2023-03-26T12:18:27.934Z,87.20
2023-03-26T12:21:08.360Z,89.96
2023-03-26T12:23:59.873Z,90.28
2023-03-26T12:26:44.892Z,90.29
2023-03-26T12:29:18.886Z,89.70
2023-03-26T12:32:04.048Z,87.83
2023-03-26T12:34:37.386Z,86.87
2023-03-26T12:37:28.029Z,85.55
2023-03-26T12:40:25.813Z,85.22
2023-03-26T12:44:54.242Z,84.71
2023-03-26T12:47:15.117Z,82.90
2023-03-26T12:48:58.086Z,78.00
2023-03-26T12:51:59.958Z,75.88
2023-03-26T12:54:59.927Z,74.90
2023-03-26T12:58:13.807Z,71.46
2023-03-26T13:01:07.355Z,69.20
2023-03-26T13:03:38.798Z,67.35
2023-03-26T13:06:23.108Z,67.90
2023-03-26T13:09:13.293Z,65.49
2023-03-26T13:11:50.760Z,65.65
2023-03-26T13:14:44.625Z,64.18
2023-03-26T13:17:29.269Z,63.73
2023-03-26T13:20:12.445Z,62.71
2023-03-26T13:23:05.933Z,63.65
2023-03-26T13:25:59.498Z,62.89
2023-03-26T13:28:53.575Z,61.95
2023-03-26T13:31:39.904Z,61.62
2023-03-26T13:34:24.134Z,62.93
2023-03-26T13:37:20.488Z,63.10
2023-03-26T13:40:01.843Z,64.31
2023-03-26T13:43:01.001Z,64.78
2023-03-26T13:46:15.432Z,64.09
2023-03-26T13:48:57.716Z,65.51
2023-03-26T13:51:47.545Z,66.10
2023-03-26T13:54:30.653Z,65.76
2023-03-26T13:57:21.498Z,64.34
2023-03-26T14:00:21.789Z,62.95
2023-03-26T14:03:00.774Z,60.99
2023-03-26T14:05:39.315Z,57.57
2023-03-26T14:08:32.843Z,54.59
2023-03-26T14:11:48.365Z,55.43
2023-03-26T14:14:31.465Z,57.34
2023-03-26T14:17:04.567Z,56.87
2023-03-26T14:20:20.946Z,55.69
2023-03-26T14:23:01.987Z,56.31
2023-03-26T14:25:55.925Z,55.72
2023-03-26T14:28:58.426Z,56.74
2023-03-26T14:31:59.177Z,55.82
2023-03-26T14:34:58.436Z,55.83
2023-03-26T14:37:57.405Z,56.33
2023-03-26T14:41:03.192Z,57.67
2023-03-26T14:44:04.981Z,57.19
2023-03-26T14:47:15.861Z,56.62
2023-03-26T14:50:15.719Z,56.79
2023-03-26T14:52:52.701Z,55.76
2023-03-26T14:55:56.514Z,55.66
2023-03-26T14:59:18.840Z,55.76
2023-03-26T15:02:36.239Z,56.86
2023-03-26T15:05:54.936Z,57.80
2023-03-26T15:09:15.490Z,58.06
2023-03-26T15:12:12.535Z,58.55
2023-03-26T15:15:38.438Z,57.80
2023-03-26T15:18:43.098Z,58.51
2023-03-26T15:21:57.138Z,58.29
2023-03-26T15:25:04.122Z,58.28
2023-03-26T15:27:57.663Z,59.60
2023-03-26T15:31:18.858Z,59.97
2023-03-26T15:34:13.272Z,59.28
2023-03-26T15:37:37.781Z,59.90
2023-03-26T15:40:51.480Z,59.78
2023-03-26T15:43:23.063Z,59.65
2023-03-26T15:45:57.314Z,60.23
2023-03-26T15:48:52.801Z,60.02
2023-03-26T15:51:46.276Z,59.90
2023-03-26T15:54:22.659Z,60.19
2023-03-26T15:57:21.908Z,60.71
2023-03-26T16:00:25.100Z,61.19
2023-03-26T16:03:31.088Z,61.45
2023-03-26T16:06:06.084Z,61.26
2023-03-26T16:09:04.850Z,61.12
2023-03-26T16:12:03.276Z,61.69
2023-03-26T16:15:14.695Z,60.76
2023-03-26T16:18:05.115Z,60.70
2023-03-26T16:20:43.778Z,60.72
2023-03-26T16:23:34.377Z,60.80
2023-03-26T16:26:19.556Z,61.18
2023-03-26T16:28:48.897Z,61.12
2023-03-26T16:31:35.131Z,61.59
2023-03-26T16:34:26.264Z,61.44
2023-03-26T16:36:54.890Z,61.24
2023-03-26T16:39:24.296Z,62.00
2023-03-26T16:42:06.254Z,61.51
2023-03-26T16:44:44.941Z,61.33
2023-03-26T16:47:36.671Z,61.88
2023-03-26T16:50:41.719Z,61.31
2023-03-26T16:53:47.695Z,62.17
2023-03-26T16:56:35.014Z,62.50
2023-03-26T17:00:04.608Z,62.87
2023-03-26T17:02:55.196Z,63.25
2023-03-26T17:06:03.233Z,63.85
2023-03-26T17:09:01.225Z,64.43
2023-03-26T17:12:07.974Z,64.34
2023-03-26T17:15:06.353Z,64.54
2023-03-26T17:18:22.672Z,65.02
2023-03-26T17:21:09.306Z,65.38
2023-03-26T17:24:05.657Z,65.39
2023-03-26T17:27:03.128Z,66.10
2023-03-26T17:30:21.192Z,66.75
2023-03-26T17:33:13.348Z,66.99
2023-03-26T17:35:47.942Z,67.25
2023-03-26T17:38:15.984Z,67.74
2023-03-26T17:40:58.441Z,68.01
2023-03-26T17:43:45.446Z,68.21
2023-03-26T17:46:34.587Z,68.69
2023-03-26T17:49:31.354Z,68.79
2023-03-26T17:52:05.766Z,69.34
2023-03-26T17:54:44.176Z,69.59
2023-03-26T17:57:20.404Z,69.89
2023-03-26T17:59:53.015Z,69.98
2023-03-26T18:02:33.182Z,69.98
2023-03-26T18:05:04.367Z,70.30
2023-03-26T18:08:08.151Z,70.79
2023-03-26T18:11:08.242Z,71.87
2023-03-26T18:14:33.812Z,72.19
2023-03-26T18:17:02.690Z,73.41
2023-03-26T18:19:49.950Z,72.90
2023-03-26T18:22:30.578Z,73.10
2023-03-26T18:25:01.544Z,73.84
2023-03-26T18:27:38.962Z,74.84
2023-03-26T18:30:20.903Z,75.26
2023-03-26T18:33:03.069Z,75.61
2023-03-26T18:35:44.152Z,75.81
2023-03-26T18:38:35.974Z,76.12
2023-03-26T18:41:16.934Z,76.44
2023-03-26T18:43:44.948Z,76.83
2023-03-26T18:46:14.598Z,76.95
2023-03-26T18:48:43.488Z,77.38
2023-03-26T18:51:12.103Z,77.53
2023-03-26T18:54:01.173Z,77.55
2023-03-26T18:56:51.092Z,77.66
2023-03-26T18:59:29.035Z,77.90
2023-03-26T19:01:58.756Z,78.20
2023-03-26T19:04:31.652Z,78.04
2023-03-26T19:07:01.574Z,78.23
2023-03-26T19:09:32.505Z,78.10
2023-03-26T19:12:18.353Z,78.08
2023-03-26T19:15:09.125Z,78.31
2023-03-26T19:17:56.587Z,78.56
2023-03-26T19:20:29.678Z,78.79
2023-03-26T19:22:58.187Z,78.85
2023-03-26T19:25:33.512Z,79.07
2023-03-26T19:28:01.748Z,79.38
2023-03-26T19:30:39.236Z,79.49
2023-03-26T19:33:20.911Z,79.52
2023-03-26T19:36:03.271Z,79.58
2023-03-26T19:39:01.423Z,79.82
2023-03-26T19:41:36.297Z,83.95
2023-03-26T19:44:28.587Z,80.56
2023-03-26T19:47:18.822Z,80.22
2023-03-26T19:50:03.823Z,80.51
2023-03-26T19:52:39.333Z,80.79
2023-03-26T19:55:22.433Z,81.01
2023-03-26T19:57:51.598Z,81.46
2023-03-26T20:00:19.881Z,81.49
2023-03-26T20:02:49.387Z,81.29
2023-03-26T20:05:28.823Z,81.62
2023-03-26T20:08:00.713Z,81.80
2023-03-26T20:10:28.848Z,81.93
2023-03-26T20:12:58.240Z,81.58
2023-03-26T20:15:32.282Z,81.97
2023-03-26T20:18:00.750Z,82.10
2023-03-26T20:20:28.743Z,81.83
2023-03-26T20:22:57.087Z,81.14
2023-03-26T20:25:46.268Z,81.12
2023-03-26T20:28:14.129Z,81.08
2023-03-26T20:30:42.191Z,80.71
2023-03-26T20:33:25.485Z,81.09
2023-03-26T20:35:55.868Z,81.47
2023-03-26T20:38:38.986Z,81.73
2023-03-26T20:41:16.587Z,81.83
2023-03-26T20:43:44.453Z,82.24
2023-03-26T20:46:22.392Z,82.19
2023-03-26T20:48:51.736Z,82.34
2023-03-26T20:51:19.849Z,82.43
2023-03-26T20:53:48.142Z,82.46
2023-03-26T20:56:19.901Z,82.59
2023-03-26T20:59:09.726Z,82.79
2023-03-26T21:01:39.170Z,82.71
2023-03-26T21:04:08.986Z,82.95
2023-03-26T21:06:36.998Z,83.30
2023-03-26T21:09:05.834Z,83.55
2023-03-26T21:12:00.327Z,84.60
2023-03-26T21:14:40.932Z,84.81
2023-03-26T21:17:19.364Z,85.45
2023-03-26T21:19:49.152Z,87.77
2023-03-26T21:22:49.716Z,85.10
2023-03-26T21:26:01.287Z,85.27
2023-03-26T21:28:50.763Z,84.99
2023-03-26T21:31:23.096Z,84.94
2023-03-26T21:33:51.767Z,83.65
2023-03-26T21:36:20.312Z,83.04
2023-03-26T21:38:50.422Z,82.87
2023-03-26T21:41:24.109Z,82.79
2023-03-26T21:43:51.930Z,83.26
2023-03-26T21:46:20.487Z,83.28
2023-03-26T21:48:48.829Z,83.27
2023-03-26T21:51:19.228Z,83.01
2023-03-26T21:53:48.819Z,83.28
2023-03-26T21:56:50.353Z,83.80
2023-03-26T21:59:56.589Z,83.60
2023-03-26T22:02:59.392Z,84.09
2023-03-26T22:05:44.971Z,84.09
2023-03-26T22:08:29.278Z,84.66
2023-03-26T22:10:57.740Z,84.92
2023-03-26T22:13:26.076Z,84.58
2023-03-26T22:15:54.427Z,84.72
2023-03-26T22:18:24.440Z,84.56
2023-03-26T22:20:53.068Z,84.47
2023-03-26T22:23:21.134Z,84.97
2023-03-26T22:25:49.452Z,85.73
2023-03-26T22:28:18.202Z,85.98
2023-03-26T22:30:46.542Z,85.58
2023-03-26T22:33:14.467Z,85.32
2023-03-26T22:35:42.979Z,84.57
2023-03-26T22:38:11.860Z,84.85
2023-03-26T22:40:39.678Z,84.88
2023-03-26T22:43:07.490Z,85.00
2023-03-26T22:45:37.524Z,84.82
2023-03-26T22:48:05.709Z,84.87
2023-03-26T22:50:33.677Z,84.43
2023-03-26T22:53:01.552Z,84.24
2023-03-26T22:55:30.031Z,84.64
2023-03-26T22:57:58.307Z,84.34
2023-03-26T23:00:26.568Z,84.65
2023-03-26T23:03:00.416Z,85.06
2023-03-26T23:05:29.293Z,84.72
2023-03-26T23:07:57.167Z,84.84
2023-03-26T23:10:25.017Z,84.54
2023-03-26T23:12:52.805Z,84.79
2023-03-26T23:15:20.644Z,84.33
2023-03-26T23:17:54.920Z,84.59
2023-03-26T23:20:23.339Z,84.25
2023-03-26T23:22:51.255Z,84.74
2023-03-26T23:25:21.530Z,85.26
2023-03-26T23:27:50.587Z,84.01
2023-03-26T23:30:19.025Z,83.93
2023-03-26T23:32:46.985Z,83.59
2023-03-26T23:35:14.875Z,83.10
2023-03-26T23:37:42.707Z,83.29
2023-03-26T23:40:12.315Z,82.91
2023-03-26T23:42:40.112Z,82.64
2023-03-26T23:45:08.540Z,82.63
2023-03-26T23:47:37.289Z,82.57
2023-03-26T23:50:06.293Z,82.23
2023-03-26T23:52:34.081Z,82.17
2023-03-26T23:55:01.961Z,81.80
2023-03-26T23:57:30.560Z,81.29
2023-03-26T23:59:58.483Z,80.93
